createdAt,value
2022-12-19T00:00:07.778Z,-1.80
2022-12-19T00:02:40.711Z,-1.80
2022-12-19T00:05:08.291Z,-1.80
2022-12-19T00:07:35.411Z,-1.80
2022-12-19T00:10:02.705Z,-1.80
2022-12-19T00:12:31.185Z,-1.80
2022-12-19T00:14:58.396Z,-1.80
2022-12-19T00:17:27.300Z,-1.80
2022-12-19T00:19:54.445Z,-1.80
2022-12-19T00:22:21.662Z,-1.90
2022-12-19T00:24:48.817Z,-1.90
2022-12-19T00:27:15.903Z,-2.00
2022-12-19T00:29:42.976Z,-2.00
2022-12-19T00:32:11.370Z,-2.00
2022-12-19T00:34:40.902Z,-2.00
2022-12-19T00:37:07.975Z,-2.00
2022-12-19T00:39:35.133Z,-2.00
2022-12-19T00:42:02.565Z,-2.00
2022-12-19T00:44:29.770Z,-2.10
2022-12-19T00:46:56.910Z,-2.00
2022-12-19T00:49:24.044Z,-2.10
2022-12-19T00:51:51.729Z,-2.10
2022-12-19T00:54:18.919Z,-2.10
2022-12-19T00:56:46.168Z,-2.20
2022-12-19T00:59:13.246Z,-2.20
2022-12-19T01:01:42.164Z,-2.20
2022-12-19T01:04:31.130Z,-2.20
2022-12-19T01:07:02.407Z,-2.20
2022-12-19T01:09:30.914Z,-2.20
2022-12-19T01:12:17.173Z,-2.20
2022-12-19T01:14:44.513Z,-2.20
2022-12-19T01:17:11.788Z,-2.20
2022-12-19T01:19:43.612Z,-2.20
2022-12-19T01:22:13.189Z,-2.20
2022-12-19T01:24:40.551Z,-2.20
2022-12-19T01:27:08.208Z,-2.30
2022-12-19T01:29:39.953Z,-2.20
2022-12-19T01:32:20.811Z,-2.20
2022-12-19T01:34:48.150Z,-2.20
2022-12-19T01:37:15.348Z,-2.20
2022-12-19T01:39:44.890Z,-2.20
2022-12-19T01:42:23.126Z,-2.20
2022-12-19T01:45:04.761Z,-2.30
2022-12-19T01:47:36.821Z,-2.20
2022-12-19T01:50:04.486Z,-2.20
2022-12-19T01:52:31.734Z,-2.20
2022-12-19T01:54:59.059Z,-2.20
2022-12-19T01:57:26.410Z,-2.20
2022-12-19T01:59:58.782Z,-2.20
2022-12-19T02:02:32.417Z,-2.20
2022-12-19T02:05:01.683Z,-2.20
2022-12-19T02:07:29.358Z,-2.20
2022-12-19T02:09:57.802Z,-2.20
2022-12-19T02:12:26.773Z,-2.20
2022-12-19T02:15:02.310Z,-2.10
2022-12-19T02:17:51.345Z,-2.10
2022-12-19T02:20:32.065Z,-2.10
2022-12-19T02:23:21.128Z,-2.10
2022-12-19T02:26:29.727Z,-2.10
2022-12-19T02:29:00.755Z,-2.00
2022-12-19T02:31:35.158Z,-2.00
2022-12-19T02:34:55.232Z,-2.00
2022-12-19T02:37:32.795Z,-1.90
2022-12-19T02:40:11.063Z,-2.00
2022-12-19T02:42:42.213Z,-2.00
2022-12-19T02:45:15.616Z,-2.00
2022-12-19T02:47:57.857Z,-2.00
2022-12-19T02:50:26.721Z,-2.00
2022-12-19T02:52:53.993Z,-2.00
2022-12-19T02:55:24.803Z,-2.00
2022-12-19T02:58:05.891Z,-2.00
2022-12-19T03:00:41.431Z,-2.00
2022-12-19T03:03:29.386Z,-2.10
2022-12-19T03:06:27.204Z,-2.10
2022-12-19T03:09:23.901Z,-2.10
2022-12-19T03:12:02.821Z,-2.10
2022-12-19T03:14:31.723Z,-2.00
2022-12-19T03:17:06.608Z,-2.00
2022-12-19T03:19:36.328Z,-2.00
2022-12-19T03:22:03.663Z,-2.00
2022-12-19T03:24:31.224Z,-2.00
2022-12-19T03:27:05.142Z,-1.90
2022-12-19T03:29:40.227Z,-1.90
2022-12-19T03:32:10.959Z,-1.90
2022-12-19T03:34:49.165Z,-1.90
2022-12-19T03:37:20.484Z,-1.90
2022-12-19T03:39:52.232Z,-1.90
2022-12-19T03:42:40.251Z,-1.80
2022-12-19T03:45:09.052Z,-1.80
2022-12-19T03:47:51.201Z,-1.80
2022-12-19T03:50:19.044Z,-1.80
2022-12-19T03:53:03.932Z,-1.80
2022-12-19T03:55:38.805Z,-1.70
2022-12-19T03:58:13.008Z,-1.70
2022-12-19T04:00:47.428Z,-1.70
2022-12-19T04:03:20.359Z,-1.70
2022-12-19T04:05:49.433Z,-1.60
2022-12-19T04:08:17.170Z,-1.60
2022-12-19T04:10:50.059Z,-1.50
2022-12-19T04:13:42.103Z,-1.50
2022-12-19T04:16:25.299Z,-1.50
2022-12-19T04:19:01.711Z,-1.40
2022-12-19T04:21:41.491Z,-1.40
2022-12-19T04:24:17.105Z,-1.30
2022-12-19T04:26:49.386Z,-1.30
2022-12-19T04:29:17.444Z,-1.30
2022-12-19T04:31:44.931Z,-1.20
2022-12-19T04:34:12.284Z,-1.20
2022-12-19T04:36:39.747Z,-1.20
2022-12-19T04:39:07.367Z,-1.20
2022-12-19T04:41:34.610Z,-1.10
2022-12-19T04:44:01.718Z,-1.10
2022-12-19T04:46:29.074Z,-1.10
2022-12-19T04:48:56.270Z,-1.10
2022-12-19T04:51:23.414Z,-1.20
2022-12-19T04:53:50.592Z,-1.20
2022-12-19T04:56:17.825Z,-1.10
2022-12-19T04:58:44.931Z,-1.10
2022-12-19T05:01:14.353Z,-1.10
2022-12-19T05:03:41.626Z,-1.10
2022-12-19T05:06:11.875Z,-1.10
2022-12-19T05:08:41.855Z,-1.10
2022-12-19T05:11:14.582Z,-1.10
2022-12-19T05:13:46.435Z,-1.10
2022-12-19T05:16:15.920Z,-1.20
2022-12-19T05:18:43.933Z,-1.20
2022-12-19T05:21:11.549Z,-1.20
2022-12-19T05:23:38.934Z,-1.20
2022-12-19T05:26:07.544Z,-1.20
2022-12-19T05:28:35.127Z,-1.20
2022-12-19T05:31:23.352Z,-1.20
2022-12-19T05:33:50.760Z,-1.20
2022-12-19T05:36:18.524Z,-1.20
2022-12-19T05:38:46.071Z,-1.20
2022-12-19T05:41:19.165Z,-1.20
2022-12-19T05:43:50.843Z,-1.10
2022-12-19T05:46:21.022Z,-1.10
2022-12-19T05:48:48.783Z,-1.10
2022-12-19T05:51:16.584Z,-1.10
2022-12-19T05:53:44.209Z,-1.10
2022-12-19T05:56:18.162Z,-1.00
2022-12-19T05:58:46.190Z,-1.00
2022-12-19T06:01:22.495Z,-0.90
2022-12-19T06:03:50.891Z,-0.90
2022-12-19T06:06:20.949Z,-0.80
2022-12-19T06:08:48.313Z,-0.80
2022-12-19T06:11:15.612Z,-0.80
2022-12-19T06:13:42.847Z,-0.70
2022-12-19T06:16:15.388Z,-0.70
2022-12-19T06:18:45.010Z,-0.70
2022-12-19T06:21:15.407Z,-0.60
2022-12-19T06:23:43.032Z,-0.60
2022-12-19T06:26:19.169Z,-0.50
2022-12-19T06:28:48.680Z,-0.50
2022-12-19T06:31:16.844Z,-0.50
2022-12-19T06:33:44.024Z,-0.50
2022-12-19T06:36:22.254Z,-0.40
2022-12-19T06:38:50.693Z,-0.40
2022-12-19T06:41:37.647Z,-0.40
2022-12-19T06:44:07.454Z,-0.40
2022-12-19T06:46:35.717Z,-0.40
2022-12-19T06:49:03.581Z,-0.30
2022-12-19T06:51:31.487Z,-0.30
2022-12-19T06:53:58.680Z,-0.30
2022-12-19T06:56:26.247Z,-0.30
2022-12-19T06:58:53.621Z,-0.30
2022-12-19T07:01:35.726Z,-0.20
2022-12-19T07:04:03.801Z,-0.20
2022-12-19T07:06:30.879Z,-0.30
2022-12-19T07:08:58.015Z,-0.20
2022-12-19T07:11:25.697Z,-0.30
2022-12-19T07:13:52.939Z,-0.20
2022-12-19T07:16:20.579Z,-0.20
2022-12-19T07:18:48.748Z,-0.20
2022-12-19T07:21:16.034Z,-0.20
2022-12-19T07:23:43.868Z,-0.20
2022-12-19T07:26:11.123Z,-0.20
2022-12-19T07:28:38.599Z,-0.20
2022-12-19T07:31:05.982Z,-0.20
2022-12-19T07:33:33.824Z,-0.20
2022-12-19T07:36:01.137Z,-0.20
2022-12-19T07:38:29.549Z,-0.20
2022-12-19T07:40:58.192Z,-0.20
2022-12-19T07:43:26.272Z,-0.10
2022-12-19T07:45:57.156Z,-0.10
2022-12-19T07:48:24.614Z,-0.10
2022-12-19T07:50:54.359Z,-0.10
2022-12-19T07:53:22.613Z,-0.10
2022-12-19T07:55:53.055Z,0.00
2022-12-19T07:58:20.507Z,0.00
2022-12-19T08:00:54.656Z,0.00
2022-12-19T08:03:22.071Z,0.00
2022-12-19T08:05:49.373Z,0.00
2022-12-19T08:08:17.217Z,0.10
2022-12-19T08:10:45.259Z,0.10
2022-12-19T08:13:12.574Z,0.10
2022-12-19T08:15:39.834Z,0.10
2022-12-19T08:18:07.396Z,0.10
2022-12-19T08:20:38.063Z,0.10
2022-12-19T08:23:05.342Z,0.10
2022-12-19T08:25:33.363Z,0.10
2022-12-19T08:28:00.511Z,0.10
2022-12-19T08:30:27.719Z,0.10
2022-12-19T08:32:54.934Z,0.10
2022-12-19T08:35:23.052Z,0.20
2022-12-19T08:37:50.241Z,0.20
2022-12-19T08:40:17.394Z,0.20
2022-12-19T08:42:44.673Z,0.20
2022-12-19T08:45:12.800Z,0.20
2022-12-19T08:47:40.277Z,0.20
2022-12-19T08:50:08.040Z,0.30
2022-12-19T08:52:35.534Z,0.20
2022-12-19T08:55:03.208Z,0.30
2022-12-19T08:57:30.386Z,0.20
2022-12-19T08:59:57.547Z,0.30
2022-12-19T09:02:26.118Z,0.30
2022-12-19T09:05:39.549Z,0.30
2022-12-19T09:07:40.921Z,0.30
2022-12-19T09:10:12.643Z,0.40
2022-12-19T09:12:41.370Z,0.40
2022-12-19T09:15:08.884Z,0.40
2022-12-19T09:17:36.102Z,0.40
2022-12-19T09:20:04.494Z,0.50
2022-12-19T09:22:31.757Z,0.50
2022-12-19T09:24:58.996Z,0.50
2022-12-19T09:27:26.098Z,0.60
2022-12-19T09:29:54.369Z,0.60
2022-12-19T09:32:21.820Z,0.60
2022-12-19T09:34:49.075Z,0.60
2022-12-19T09:37:17.634Z,0.70
2022-12-19T09:39:47.192Z,0.70
2022-12-19T09:42:42.744Z,0.80
2022-12-19T09:45:31.207Z,0.80
2022-12-19T09:48:01.527Z,0.90
2022-12-19T09:51:11.218Z,1.00
2022-12-19T09:53:56.910Z,0.90
2022-12-19T09:56:29.561Z,1.00
2022-12-19T09:59:10.676Z,1.00
2022-12-19T10:01:56.856Z,1.00
2022-12-19T10:04:27.172Z,1.00
2022-12-19T10:07:26.354Z,1.00
2022-12-19T10:12:30.990Z,1.00
2022-12-19T10:12:53.068Z,1.00
2022-12-19T10:16:00.098Z,1.10
2022-12-19T10:18:57.354Z,1.10
2022-12-19T10:24:41.374Z,1.20
2022-12-19T10:27:37.213Z,1.20
2022-12-19T10:30:22.262Z,1.30
2022-12-19T10:32:58.840Z,1.30
2022-12-19T10:35:33.102Z,1.30
2022-12-19T10:38:12.662Z,1.30
2022-12-19T10:40:48.405Z,1.30
2022-12-19T10:43:44.342Z,1.20
2022-12-19T10:46:38.082Z,1.20
2022-12-19T10:49:14.121Z,1.30
2022-12-19T10:51:42.478Z,1.30
2022-12-19T10:54:09.892Z,1.30
2022-12-19T10:56:38.246Z,1.30
2022-12-19T10:59:16.883Z,1.40
2022-12-19T11:01:44.807Z,1.40
2022-12-19T11:04:31.170Z,1.40
2022-12-19T11:07:02.570Z,1.40
2022-12-19T11:09:32.296Z,1.40
2022-12-19T11:15:57.036Z,1.50
2022-12-19T11:21:47.032Z,1.50
2022-12-19T11:29:16.392Z,1.50
2022-12-19T11:29:40.173Z,1.50
2022-12-19T11:29:40.718Z,1.60
2022-12-19T11:30:48.370Z,1.60
2022-12-19T11:32:42.024Z,1.70
2022-12-19T11:35:36.710Z,1.80
2022-12-19T11:38:06.840Z,1.80
2022-12-19T11:40:46.572Z,1.80
2022-12-19T11:43:44.392Z,1.80
2022-12-19T11:46:22.833Z,1.80
2022-12-19T11:48:52.302Z,1.80
2022-12-19T11:51:31.762Z,1.70
2022-12-19T11:54:20.445Z,1.70
2022-12-19T11:56:47.623Z,1.70
2022-12-19T11:59:20.595Z,1.70
2022-12-19T12:02:05.998Z,1.70
2022-12-19T12:04:42.189Z,1.70
2022-12-19T12:07:25.057Z,1.70
2022-12-19T12:12:33.358Z,1.70
2022-12-19T12:19:23.083Z,1.70
2022-12-19T12:29:54.076Z,1.70
2022-12-19T12:31:27.850Z,1.70
2022-12-19T12:31:39.616Z,1.80
2022-12-19T12:31:40.923Z,1.70
2022-12-19T12:31:41.563Z,1.70
2022-12-19T12:35:38.457Z,1.90
2022-12-19T12:38:25.650Z,1.90
2022-12-19T12:41:12.057Z,2.00
2022-12-19T12:44:08.678Z,2.00
2022-12-19T12:47:02.092Z,2.00
2022-12-19T12:49:59.025Z,2.00
2022-12-19T12:52:50.942Z,2.00
2022-12-19T12:55:26.310Z,1.90
2022-12-19T12:57:53.842Z,1.90
2022-12-19T13:00:27.136Z,1.90
2022-12-19T13:03:09.578Z,1.90
2022-12-19T13:05:40.618Z,1.90
2022-12-19T13:08:26.235Z,1.80
2022-12-19T13:10:55.785Z,1.80
2022-12-19T13:13:53.658Z,1.80
2022-12-19T13:16:58.137Z,1.70
2022-12-19T13:19:28.875Z,1.70
2022-12-19T13:22:05.698Z,1.60
2022-12-19T13:24:58.415Z,1.60
2022-12-19T13:27:25.683Z,1.60
2022-12-19T13:30:12.559Z,1.50
2022-12-19T13:32:39.855Z,1.50
2022-12-19T13:36:47.765Z,1.50
2022-12-19T13:39:56.901Z,1.40
2022-12-19T13:41:48.784Z,1.40
2022-12-19T13:44:22.078Z,1.40
2022-12-19T13:46:50.072Z,1.30
2022-12-19T13:49:29.867Z,1.30
2022-12-19T13:52:01.088Z,1.30
2022-12-19T13:54:36.438Z,1.30
2022-12-19T13:57:09.582Z,1.30
2022-12-19T13:59:40.259Z,1.30
2022-12-19T14:02:15.736Z,1.30
2022-12-19T14:04:44.874Z,1.30
2022-12-19T14:07:40.717Z,1.30
2022-12-19T14:11:39.469Z,1.30
2022-12-19T14:13:51.067Z,1.30
2022-12-19T14:16:20.391Z,1.30
2022-12-19T14:18:50.663Z,1.30
2022-12-19T14:22:05.225Z,1.30
2022-12-19T14:24:27.129Z,1.30
2022-12-19T14:28:21.478Z,1.30
2022-12-19T14:30:27.882Z,1.30
2022-12-19T14:33:45.707Z,1.20
2022-12-19T14:36:10.367Z,1.20
2022-12-19T14:39:24.342Z,1.20
2022-12-19T14:41:58.823Z,1.10
2022-12-19T14:52:44.854Z,1.00
2022-12-19T14:52:51.807Z,1.10
2022-12-19T14:54:23.584Z,0.90
2022-12-19T14:58:53.400Z,0.80
2022-12-19T15:01:07.205Z,0.80
2022-12-19T15:03:33.194Z,0.80
2022-12-19T15:11:05.665Z,0.70
2022-12-19T15:14:47.837Z,0.70
2022-12-19T15:16:01.116Z,0.70
2022-12-19T15:18:43.367Z,0.60
2022-12-19T15:21:19.199Z,0.60
2022-12-19T15:23:52.448Z,0.60
2022-12-19T15:26:34.802Z,0.60
2022-12-19T15:29:06.223Z,0.60
2022-12-19T15:31:41.094Z,0.60
2022-12-19T15:37:12.176Z,0.60
2022-12-19T15:39:40.814Z,0.60
2022-12-19T15:42:21.691Z,0.60
2022-12-19T15:44:52.452Z,0.60
2022-12-19T15:47:30.016Z,0.60
2022-12-19T15:50:01.943Z,0.70
2022-12-19T15:52:29.656Z,0.70
2022-12-19T15:54:57.647Z,0.70
2022-12-19T15:57:36.188Z,0.70
2022-12-19T16:00:07.921Z,0.70
2022-12-19T16:03:20.667Z,0.70
2022-12-19T16:05:24.184Z,0.70
2022-12-19T16:07:51.891Z,0.80
2022-12-19T16:10:19.337Z,0.70
2022-12-19T16:12:55.623Z,0.80
2022-12-19T16:15:29.600Z,0.80
2022-12-19T16:18:00.121Z,0.80
2022-12-19T16:20:32.090Z,0.80
2022-12-19T16:22:59.322Z,0.80
2022-12-19T16:25:45.380Z,0.90
2022-12-19T16:28:23.626Z,0.90
2022-12-19T16:30:51.034Z,0.90
2022-12-19T16:33:21.147Z,0.90
2022-12-19T16:36:06.575Z,1.00
2022-12-19T16:38:35.294Z,1.00
2022-12-19T16:41:02.855Z,1.00
2022-12-19T16:43:43.660Z,1.00
2022-12-19T16:46:18.120Z,1.00
2022-12-19T16:48:45.971Z,1.10
2022-12-19T16:51:21.331Z,1.10
2022-12-19T16:53:50.731Z,1.10
2022-12-19T16:56:32.907Z,1.10
2022-12-19T16:59:02.592Z,1.10
2022-12-19T17:01:30.163Z,1.10
2022-12-19T17:03:58.867Z,1.10
2022-12-19T17:06:26.640Z,1.10
2022-12-19T17:08:53.880Z,1.10
2022-12-19T17:11:28.401Z,1.10
2022-12-19T17:14:04.530Z,1.10
2022-12-19T17:16:33.428Z,1.10
2022-12-19T17:19:01.428Z,1.20
2022-12-19T17:21:28.611Z,1.20
2022-12-19T17:23:55.792Z,1.20
2022-12-19T17:26:23.119Z,1.20
2022-12-19T17:28:50.713Z,1.20
2022-12-19T17:31:26.087Z,1.20
2022-12-19T17:33:57.031Z,1.20
2022-12-19T17:36:32.871Z,1.20
2022-12-19T17:39:23.446Z,1.20
2022-12-19T17:41:53.856Z,1.20
2022-12-19T17:44:20.992Z,1.20
2022-12-19T17:46:48.488Z,1.20
2022-12-19T17:49:25.851Z,1.20
2022-12-19T17:51:53.651Z,1.20
2022-12-19T17:54:22.329Z,1.20
2022-12-19T17:56:50.567Z,1.20
2022-12-19T17:59:17.928Z,1.20
2022-12-19T18:01:47.342Z,1.20
2022-12-19T18:04:17.908Z,1.20
2022-12-19T18:06:45.744Z,1.20
2022-12-19T18:09:23.451Z,1.20
2022-12-19T18:11:52.494Z,1.30
2022-12-19T18:14:20.014Z,1.30
2022-12-19T18:16:48.415Z,1.30
2022-12-19T18:19:24.722Z,1.30
2022-12-19T18:21:51.977Z,1.30
2022-12-19T18:24:19.130Z,1.30
2022-12-19T18:26:46.303Z,1.30
2022-12-19T18:29:14.288Z,1.30
2022-12-19T18:31:48.332Z,1.30
2022-12-19T18:34:20.843Z,1.30
2022-12-19T18:36:48.871Z,1.40
2022-12-19T18:39:22.364Z,1.40
2022-12-19T18:41:50.306Z,1.40
2022-12-19T18:44:18.306Z,1.40
2022-12-19T18:46:48.799Z,1.40
2022-12-19T18:49:17.283Z,1.40
2022-12-19T18:51:46.823Z,1.40
2022-12-19T18:54:17.225Z,1.40
2022-12-19T18:56:44.800Z,1.40
2022-12-19T18:59:13.447Z,1.40
2022-12-19T19:01:47.080Z,1.40
2022-12-19T19:04:18.046Z,1.40
2022-12-19T19:06:51.804Z,1.40
2022-12-19T19:09:21.337Z,1.40
2022-12-19T19:11:48.720Z,1.40
2022-12-19T19:14:16.121Z,1.40
2022-12-19T19:16:43.379Z,1.40
2022-12-19T19:19:14.589Z,1.40
2022-12-19T19:21:42.780Z,1.40
2022-12-19T19:24:22.838Z,1.40
2022-12-19T19:26:50.092Z,1.40
2022-12-19T19:29:19.814Z,1.40
2022-12-19T19:31:50.313Z,1.40
2022-12-19T19:34:34.254Z,1.40
2022-12-19T19:37:06.184Z,1.40
2022-12-19T19:39:34.362Z,1.40
2022-12-19T19:42:02.423Z,1.40
2022-12-19T19:44:30.869Z,1.40
2022-12-19T19:46:58.411Z,1.40
2022-12-19T19:49:26.187Z,1.40
2022-12-19T19:52:00.329Z,1.40
2022-12-19T19:54:30.327Z,1.40
2022-12-19T19:56:58.266Z,1.40
2022-12-19T19:59:25.452Z,1.40
2022-12-19T20:01:55.407Z,1.50
2022-12-19T20:04:22.891Z,1.50
2022-12-19T20:06:50.113Z,1.50
2022-12-19T20:09:17.413Z,1.50
2022-12-19T20:11:45.796Z,1.50
2022-12-19T20:14:18.486Z,1.50
2022-12-19T20:16:45.747Z,1.50
2022-12-19T20:19:15.726Z,1.50
2022-12-19T20:21:43.598Z,1.50
2022-12-19T20:24:11.468Z,1.50
2022-12-19T20:26:38.909Z,1.50
2022-12-19T20:29:08.872Z,1.40
2022-12-19T20:31:36.059Z,1.40
2022-12-19T20:34:03.235Z,1.40
2022-12-19T20:36:30.457Z,1.40
2022-12-19T20:38:57.639Z,1.40
2022-12-19T20:41:25.856Z,1.40
2022-12-19T20:43:53.328Z,1.40
2022-12-19T20:46:21.643Z,1.40
2022-12-19T20:48:49.989Z,1.40
2022-12-19T20:51:19.214Z,1.40
2022-12-19T20:53:46.841Z,1.40
2022-12-19T20:56:18.996Z,1.40
2022-12-19T20:58:48.138Z,1.40
2022-12-19T21:01:20.042Z,1.30
2022-12-19T21:03:48.759Z,1.30
2022-12-19T21:06:18.245Z,1.30
2022-12-19T21:08:46.070Z,1.30
2022-12-19T21:11:15.574Z,1.40
2022-12-19T21:13:43.845Z,1.40
2022-12-19T21:16:16.652Z,1.40
2022-12-19T21:18:45.488Z,1.40
2022-12-19T21:21:18.159Z,1.30
2022-12-19T21:23:47.162Z,1.30
2022-12-19T21:26:15.754Z,1.30
2022-12-19T21:28:43.087Z,1.30
2022-12-19T21:31:18.433Z,1.20
2022-12-19T21:33:46.405Z,1.20
2022-12-19T21:36:21.567Z,1.20
2022-12-19T21:38:51.790Z,1.20
2022-12-19T21:41:19.533Z,1.20
2022-12-19T21:43:47.899Z,1.20
2022-12-19T21:46:17.180Z,1.30
2022-12-19T21:48:49.950Z,1.30
2022-12-19T21:51:19.197Z,1.30
2022-12-19T21:53:47.080Z,1.30
2022-12-19T21:56:27.531Z,1.30
2022-12-19T21:58:58.389Z,1.30
2022-12-19T22:01:26.114Z,1.30
2022-12-19T22:03:57.537Z,1.30
2022-12-19T22:06:28.427Z,1.30
2022-12-19T22:08:56.204Z,1.30
2022-12-19T22:11:23.930Z,1.30
2022-12-19T22:13:51.406Z,1.30
2022-12-19T22:16:18.654Z,1.30
2022-12-19T22:18:46.233Z,1.30
2022-12-19T22:21:15.738Z,1.30
2022-12-19T22:23:42.993Z,1.30
2022-12-19T22:26:19.541Z,1.30
2022-12-19T22:28:50.754Z,1.30
2022-12-19T22:31:33.006Z,1.30
2022-12-19T22:34:03.160Z,1.30
2022-12-19T22:36:32.294Z,1.40
2022-12-19T22:39:01.845Z,1.40
2022-12-19T22:41:30.328Z,1.40
2022-12-19T22:43:57.538Z,1.40
2022-12-19T22:46:28.081Z,1.40
2022-12-19T22:48:58.474Z,1.40
2022-12-19T22:51:27.294Z,1.40
2022-12-19T22:53:56.076Z,1.40
2022-12-19T22:56:25.722Z,1.30
2022-12-19T22:58:55.792Z,1.30
2022-12-19T23:01:26.492Z,1.30
2022-12-19T23:03:56.803Z,1.30
2022-12-19T23:06:26.280Z,1.40
2022-12-19T23:08:54.057Z,1.30
2022-12-19T23:11:26.779Z,1.30
2022-12-19T23:13:54.096Z,1.30
2022-12-19T23:16:21.315Z,1.30
2022-12-19T23:18:48.694Z,1.30
2022-12-19T23:21:22.164Z,1.30
2022-12-19T23:23:51.666Z,1.30
2022-12-19T23:26:30.939Z,1.30
2022-12-19T23:29:00.730Z,1.30
2022-12-19T23:31:29.269Z,1.30
2022-12-19T23:33:57.726Z,1.40
2022-12-19T23:37:08.177Z,1.40
2022-12-19T23:39:13.615Z,1.40
2022-12-19T23:41:40.823Z,1.40
2022-12-19T23:44:09.376Z,1.40
2022-12-19T23:46:37.026Z,1.40
2022-12-19T23:49:04.590Z,1.40
2022-12-19T23:51:31.990Z,1.30
2022-12-19T23:54:01.300Z,1.40
2022-12-19T23:56:30.450Z,1.30
2022-12-19T23:58:58.260Z,1.30
